Time;durP1;ratioP1;P1;durP2;ratioP2;P2;SDS_P1;SDS_P2;PMS_P1;PMS_P2;Temp;Humidity;BMP_temperature;BMP_pressure;BME280_temperature;BME280_humidity;BME280_pressure;Samples;Min_cycle;Max_cycle;Signal;HPM_P1;HPM_P2
2022/08/07 00:01:15;;;;;;;3.42;2.30;;;;;;;;;;5001926;28;20822;-77
2022/08/07 00:04:03;;;;;;;4.43;2.22;;;;;;;;;;5008453;28;20058;-75
2022/08/07 00:06:32;;;;;;;4.63;2.53;;;;;;;;;;5006565;28;20054;-76
2022/08/07 00:09:00;;;;;;;3.97;2.10;;;;;;;;;;5006190;28;20043;-76
2022/08/07 00:11:43;;;;;;;6.90;2.50;;;;;;;;;;5007465;28;20054;-76
2022/08/07 00:14:22;;;;;;;7.75;2.60;;;;;;;;;;5007413;28;20133;-76
2022/08/07 00:16:52;;;;;;;4.93;2.42;;;;;;;;;;5008120;28;20050;-76
2022/08/07 00:19:19;;;;;;;3.72;2.35;;;;;;;;;;5010614;28;20133;-76
2022/08/07 00:21:48;;;;;;;3.30;2.38;;;;;;;;;;5006329;28;20055;-76
2022/08/07 00:24:28;;;;;;;4.03;2.33;;;;;;;;;;5002890;28;20077;-76
2022/08/07 00:26:58;;;;;;;3.25;2.10;;;;;;;;;;5007778;28;20058;-77
2022/08/07 00:29:35;;;;;;;7.30;2.50;;;;;;;;;;5008937;28;20963;-76
2022/08/07 00:32:03;;;;;;;5.30;2.50;;;;;;;;;;5007641;28;20058;-77
2022/08/07 00:34:33;;;;;;;5.55;2.50;;;;;;;;;;5006879;28;20128;-76
2022/08/07 00:37:02;;;;;;;5.05;2.72;;;;;;;;;;5009867;28;20046;-76
2022/08/07 00:39:31;;;;;;;3.67;2.42;;;;;;;;;;5006330;28;20046;-76
2022/08/07 00:41:59;;;;;;;6.25;2.38;;;;;;;;;;5011203;28;20047;-76
2022/08/07 00:44:31;;;;;;;3.50;2.20;;;;;;;;;;5009781;28;20101;-76
2022/08/07 00:46:59;;;;;;;3.60;2.30;;;;;;;;;;5007355;28;20054;-76
2022/08/07 00:49:27;;;;;;;4.40;2.40;;;;;;;;;;5005862;28;20046;-76
2022/08/07 00:52:15;;;;;;;2.72;2.10;;;;;;;;;;5010469;28;20051;-76
2022/08/07 00:54:46;;;;;;;4.78;2.25;;;;;;;;;;5007801;28;20159;-76
2022/08/07 00:57:21;;;;;;;3.90;2.20;;;;;;;;;;5009795;28;20062;-76
2022/08/07 00:59:48;;;;;;;5.13;2.33;;;;;;;;;;5011016;28;20108;-76
2022/08/07 01:02:16;;;;;;;3.00;2.00;;;;;;;;;;5013400;28;20054;-76
2022/08/07 01:04:55;;;;;;;8.15;2.50;;;;;;;;;;5008589;28;20065;-76
2022/08/07 01:07:25;;;;;;;4.47;2.30;;;;;;;;;;5007649;28;20516;-76
2022/08/07 01:09:54;;;;;;;4.53;2.08;;;;;;;;;;5007741;28;20057;-76
2022/08/07 01:12:36;;;;;;;3.70;1.90;;;;;;;;;;5006977;28;20046;-76
2022/08/07 01:15:05;;;;;;;4.53;2.00;;;;;;;;;;5007975;28;20046;-76
2022/08/07 01:17:37;;;;;;;5.35;1.70;;;;;;;;;;5009491;28;20942;-76
2022/08/07 01:20:10;;;;;;;2.63;1.70;;;;;;;;;;5008650;28;20055;-76
2022/08/07 01:22:44;;;;;;;4.55;1.88;;;;;;;;;;5007196;28;20055;-76
2022/08/07 01:25:24;;;;;;;2.78;1.77;;;;;;;;;;5007559;28;20058;-76
2022/08/07 01:28:12;;;;;;;2.58;1.80;;;;;;;;;;5006170;28;20054;-76
2022/08/07 01:30:39;;;;;;;5.05;1.77;;;;;;;;;;5004847;28;20035;-76
2022/08/07 01:33:08;;;;;;;3.53;1.77;;;;;;;;;;5008570;28;20073;-76
2022/08/07 01:35:36;;;;;;;3.00;1.70;;;;;;;;;;5007694;28;20050;-76
2022/08/07 01:38:23;;;;;;;3.30;1.92;;;;;;;;;;5005176;28;20089;-75
2022/08/07 01:40:57;;;;;;;3.35;1.60;;;;;;;;;;5007623;28;20061;-76
2022/08/07 01:43:25;;;;;;;3.08;1.70;;;;;;;;;;5010333;28;20109;-76
2022/08/07 01:46:01;;;;;;;6.22;1.70;;;;;;;;;;5006654;28;20054;-76
2022/08/07 01:48:31;;;;;;;2.53;1.60;;;;;;;;;;5006411;28;20053;-76
2022/08/07 01:51:01;;;;;;;3.40;1.85;;;;;;;;;;5010504;28;20065;-76
2022/08/07 01:54:00;;;;;;;2.45;1.60;;;;;;;;;;5008424;28;20046;-76
2022/08/07 01:56:43;;;;;;;2.70;1.40;;;;;;;;;;5006359;28;20054;-76
2022/08/07 01:59:18;;;;;;;2.58;1.60;;;;;;;;;;5008496;28;20129;-77
2022/08/07 02:01:49;;;;;;;2.50;1.42;;;;;;;;;;5006744;28;20535;-77
2022/08/07 02:04:35;;;;;;;1.50;1.40;;;;;;;;;;5008337;28;20082;-77
2022/08/07 02:07:04;;;;;;;5.65;1.52;;;;;;;;;;5006834;28;20053;-77
2022/08/07 02:09:32;;;;;;;2.90;1.60;;;;;;;;;;5008406;28;20109;-77
2022/08/07 02:12:21;;;;;;;1.55;1.45;;;;;;;;;;5006097;28;20066;-77
2022/08/07 02:14:57;;;;;;;3.67;1.50;;;;;;;;;;5005602;28;20054;-76
2022/08/07 02:17:27;;;;;;;4.85;1.73;;;;;;;;;;5006292;28;20125;-77
2022/08/07 02:20:01;;;;;;;2.80;1.90;;;;;;;;;;5007094;28;20062;-77
2022/08/07 02:22:44;;;;;;;2.92;1.77;;;;;;;;;;5007670;28;20059;-77
2022/08/07 02:25:13;;;;;;;7.10;2.10;;;;;;;;;;5005319;28;20050;-77
2022/08/07 02:27:45;;;;;;;3.35;2.08;;;;;;;;;;5009924;28;20089;-77
2022/08/07 02:30:19;;;;;;;2.30;1.90;;;;;;;;;;5006165;28;20065;-76
2022/08/07 02:32:49;;;;;;;2.15;1.77;;;;;;;;;;5008349;28;20054;-76
2022/08/07 02:35:36;;;;;;;2.78;1.90;;;;;;;;;;5005562;28;20793;-77
2022/08/07 02:38:26;;;;;;;3.95;1.92;;;;;;;;;;5007916;28;20057;-77
2022/08/07 02:40:58;;;;;;;3.22;2.00;;;;;;;;;;5007486;28;20065;-77
2022/08/07 02:43:27;;;;;;;3.47;1.80;;;;;;;;;;5013140;28;20551;-77
2022/08/07 02:45:56;;;;;;;2.10;1.83;;;;;;;;;;5008391;28;20104;-76
2022/08/07 02:48:29;;;;;;;2.45;1.77;;;;;;;;;;5007427;28;20859;-77
2022/08/07 02:50:58;;;;;;;3.00;1.95;;;;;;;;;;5006739;28;20137;-77
2022/08/07 02:53:28;;;;;;;6.47;2.03;;;;;;;;;;5006811;28;20069;-77
2022/08/07 02:55:57;;;;;;;2.50;1.77;;;;;;;;;;5008621;28;20109;-76
2022/08/07 02:58:31;;;;;;;3.08;1.90;;;;;;;;;;5009812;28;20053;-77
2022/08/07 03:01:00;;;;;;;4.57;1.70;;;;;;;;;;5007588;28;20046;-77
2022/08/07 03:03:31;;;;;;;2.25;1.60;;;;;;;;;;5003781;28;20051;-76
2022/08/07 03:06:18;;;;;;;2.95;2.05;;;;;;;;;;5003448;28;20050;-77
2022/08/07 03:08:59;;;;;;;4.85;2.13;;;;;;;;;;5005328;28;20141;-77
2022/08/07 03:11:26;;;;;;;3.50;1.88;;;;;;;;;;5008778;28;20057;-76
2022/08/07 03:13:54;;;;;;;3.30;1.80;;;;;;;;;;5009656;28;20153;-76
2022/08/07 03:16:27;;;;;;;;;;;;;;;;;;5009189;28;20054;-77
2022/08/07 03:18:55;;;;;;;3.75;1.90;;;;;;;;;;5005406;28;42505;-77
2022/08/07 03:21:23;;;;;;;2.80;1.80;;;;;;;;;;5009456;28;20432;-77
2022/08/07 03:23:51;;;;;;;2.85;1.75;;;;;;;;;;5009920;28;20142;-77
2022/08/07 03:26:39;;;;;;;2.78;1.80;;;;;;;;;;5006487;28;20047;-76
2022/08/07 03:29:25;;;;;;;2.83;1.95;;;;;;;;;;5009551;28;20078;-77
2022/08/07 03:31:55;;;;;;;2.97;2.10;;;;;;;;;;5010008;28;20038;-77
2022/08/07 03:34:23;;;;;;;3.95;1.85;;;;;;;;;;5007047;28;20493;-77
2022/08/07 03:36:54;;;;;;;2.50;1.92;;;;;;;;;;5006666;28;20093;-77
2022/08/07 03:39:23;;;;;;;2.60;1.70;;;;;;;;;;5001709;28;20298;-76
2022/08/07 03:42:11;;;;;;;5.30;2.42;;;;;;;;;;4998229;28;20065;-77
2022/08/07 03:44:38;;;;;;;5.85;2.10;;;;;;;;;;5000690;28;20065;-77
2022/08/07 03:47:06;;;;;;;3.55;2.22;;;;;;;;;;5000408;28;20050;-77
2022/08/07 03:49:42;;;;;;;2.70;2.08;;;;;;;;;;5002971;28;20054;-77
2022/08/07 03:52:19;;;;;;;2.83;1.80;;;;;;;;;;5005010;28;20062;-77
2022/08/07 03:54:53;;;;;;;4.63;2.10;;;;;;;;;;5005690;28;20132;-77
2022/08/07 03:57:34;;;;;;;3.83;2.13;;;;;;;;;;5007327;28;20059;-77
2022/08/07 04:00:21;;;;;;;2.95;2.10;;;;;;;;;;5008586;28;20061;-78
2022/08/07 04:02:57;;;;;;;4.13;2.10;;;;;;;;;;5008205;28;20058;-76
2022/08/07 04:05:25;;;;;;;2.67;1.80;;;;;;;;;;5006874;28;20129;-77
2022/08/07 04:08:11;;;;;;;2.58;1.90;;;;;;;;;;5008444;28;20107;-77
2022/08/07 04:10:42;;;;;;;5.28;1.95;;;;;;;;;;5004947;28;20043;-77
2022/08/07 04:13:30;;;;;;;6.70;2.30;;;;;;;;;;5006966;28;20053;-77
2022/08/07 04:16:18;;;;;;;3.47;2.35;;;;;;;;;;5003022;28;20058;-77
2022/08/07 04:18:59;;;;;;;3.28;2.08;;;;;;;;;;5009393;28;20058;-77
2022/08/07 04:21:38;;;;;;;12.73;2.40;;;;;;;;;;5006626;28;20065;-77
2022/08/07 04:24:26;;;;;;;4.25;2.55;;;;;;;;;;5008181;28;20081;-77
2022/08/07 04:27:04;;;;;;;4.43;2.33;;;;;;;;;;5009397;28;20101;-77
2022/08/07 04:29:47;;;;;;;5.75;2.35;;;;;;;;;;5012236;28;20137;-77
2022/08/07 04:32:27;;;;;;;3.22;2.30;;;;;;;;;;5009094;28;20054;-78
2022/08/07 04:35:02;;;;;;;7.22;2.38;;;;;;;;;;5007044;28;20069;-78
2022/08/07 04:37:32;;;;;;;5.75;2.40;;;;;;;;;;5009973;28;20050;-77
2022/08/07 04:40:19;;;;;;;3.08;2.00;;;;;;;;;;5007116;28;20109;-77
2022/08/07 04:42:47;;;;;;;5.45;2.05;;;;;;;;;;5001015;28;20043;-78
2022/08/07 04:45:18;;;;;;;4.10;2.03;;;;;;;;;;5003408;28;20844;-78
2022/08/07 04:48:24;;;;;;;3.42;2.03;;;;;;;;;;5005276;28;20054;-77
2022/08/07 04:51:01;;;;;;;3.15;2.17;;;;;;;;;;5009974;28;20047;-77
2022/08/07 04:53:38;;;;;;;2.67;1.90;;;;;;;;;;5013560;28;20058;-76
2022/08/07 04:56:34;;;;;;;4.30;2.35;;;;;;;;;;5013630;28;20058;-77
2022/08/07 04:59:33;;;;;;;2.90;2.03;;;;;;;;;;5015147;28;20061;-77
2022/08/07 05:02:27;;;;;;;5.15;2.00;;;;;;;;;;5009248;28;20055;-77
2022/08/07 05:05:21;;;;;;;2.38;1.80;;;;;;;;;;5009144;28;20059;-77
2022/08/07 05:08:08;;;;;;;;;;;;;;;;;;5008324;28;20110;-77
2022/08/07 05:10:45;;;;;;;3.70;2.00;;;;;;;;;;5013382;28;44587;-77
2022/08/07 05:13:15;;;;;;;3.78;2.30;;;;;;;;;;5011085;28;20186;-78
2022/08/07 05:16:05;;;;;;;5.40;2.25;;;;;;;;;;5006418;28;20054;-77
2022/08/07 05:18:35;;;;;;;3.50;2.08;;;;;;;;;;5009868;28;20233;-77
2022/08/07 05:21:05;;;;;;;5.00;2.50;;;;;;;;;;5007414;28;20058;-77
2022/08/07 05:23:42;;;;;;;3.30;2.22;;;;;;;;;;5010997;28;20933;-77
2022/08/07 05:26:13;;;;;;;6.38;2.72;;;;;;;;;;5008261;28;20108;-77
2022/08/07 05:28:55;;;;;;;5.15;2.85;;;;;;;;;;5001954;28;20486;-77
2022/08/07 05:31:24;;;;;;;4.83;2.97;;;;;;;;;;5010719;28;20073;-77
2022/08/07 05:34:07;;;;;;;4.18;2.95;;;;;;;;;;5011909;28;20288;-77
2022/08/07 05:36:39;;;;;;;8.30;3.50;;;;;;;;;;5005640;28;20054;-77
2022/08/07 05:39:07;;;;;;;5.28;3.30;;;;;;;;;;5012076;28;20058;-78
2022/08/07 05:41:54;;;;;;;7.55;3.25;;;;;;;;;;5018553;28;20061;-77
2022/08/07 05:44:29;;;;;;;6.18;3.30;;;;;;;;;;5008374;28;20145;-77
2022/08/07 05:46:57;;;;;;;6.22;3.25;;;;;;;;;;5009817;28;20059;-78
2022/08/07 05:49:27;;;;;;;6.68;3.17;;;;;;;;;;5006400;28;20136;-76
2022/08/07 05:52:07;;;;;;;6.65;3.78;;;;;;;;;;5005719;28;20062;-77
2022/08/07 05:54:38;;;;;;;6.78;3.53;;;;;;;;;;5004361;28;20057;-77
2022/08/07 05:57:24;;;;;;;11.07;3.90;;;;;;;;;;5001397;28;20061;-77
2022/08/07 05:59:57;;;;;;;8.95;3.78;;;;;;;;;;5007762;28;20058;-76
2022/08/07 06:02:26;;;;;;;7.93;4.35;;;;;;;;;;5005667;28;20436;-77
2022/08/07 06:04:59;;;;;;;7.03;4.30;;;;;;;;;;5005548;28;20046;-77
2022/08/07 06:07:27;;;;;;;8.63;4.60;;;;;;;;;;5004032;28;20054;-77
2022/08/07 06:10:14;;;;;;;9.32;4.43;;;;;;;;;;5000883;28;20799;-77
2022/08/07 06:12:42;;;;;;;9.48;4.45;;;;;;;;;;5005368;28;20718;-76
2022/08/07 06:15:11;;;;;;;6.57;4.63;;;;;;;;;;5017877;28;20042;-77
2022/08/07 06:17:45;;;;;;;6.28;4.15;;;;;;;;;;5002910;28;20140;-77
2022/08/07 06:20:24;;;;;;;11.55;4.88;;;;;;;;;;4998976;28;20058;-77
2022/08/07 06:23:12;;;;;;;7.18;4.75;;;;;;;;;;5005400;28;20068;-78
2022/08/07 06:25:59;;;;;;;6.90;4.60;;;;;;;;;;5003258;28;20492;-77
2022/08/07 06:28:27;;;;;;;7.25;4.47;;;;;;;;;;5003433;28;20054;-77
2022/08/07 06:30:55;;;;;;;10.57;5.00;;;;;;;;;;5002613;28;20050;-77
2022/08/07 06:33:25;;;;;;;11.73;5.35;;;;;;;;;;4996514;28;20062;-77
2022/08/07 06:35:52;;;;;;;12.57;5.05;;;;;;;;;;5004115;28;20061;-77
2022/08/07 06:38:39;;;;;;;8.20;5.30;;;;;;;;;;5004566;28;20054;-76
2022/08/07 06:41:33;;;;;;;8.25;4.68;;;;;;;;;;5004645;28;20042;-76
2022/08/07 06:44:21;;;;;;;10.82;5.20;;;;;;;;;;5003424;28;20058;-76
2022/08/07 06:46:50;;;;;;;6.55;4.35;;;;;;;;;;5008747;28;20702;-76
2022/08/07 06:49:26;;;;;;;10.75;5.15;;;;;;;;;;5004876;28;20054;-76
2022/08/07 06:51:55;;;;;;;8.82;5.30;;;;;;;;;;5005227;28;20054;-77
2022/08/07 06:54:37;;;;;;;8.68;5.10;;;;;;;;;;5006635;28;20090;-76
2022/08/07 06:57:25;;;;;;;9.77;5.15;;;;;;;;;;5005336;28;20046;-76
2022/08/07 07:00:13;;;;;;;7.70;5.03;;;;;;;;;;5007525;28;20065;-77
2022/08/07 07:02:44;;;;;;;9.63;5.28;;;;;;;;;;5003483;28;20897;-77
2022/08/07 07:05:23;;;;;;;9.93;5.22;;;;;;;;;;5004532;28;20050;-77
2022/08/07 07:08:11;;;;;;;10.40;5.13;;;;;;;;;;5005340;28;20058;-78
2022/08/07 07:10:52;;;;;;;8.25;4.80;;;;;;;;;;5004223;28;20054;-77
2022/08/07 07:13:28;;;;;;;8.23;4.57;;;;;;;;;;5003752;28;20501;-77
2022/08/07 07:16:18;;;;;;;13.73;4.50;;;;;;;;;;5002335;28;20496;-77
2022/08/07 07:18:49;;;;;;;8.02;4.10;;;;;;;;;;5002778;28;20047;-77
2022/08/07 07:21:18;;;;;;;8.38;4.55;;;;;;;;;;5005310;28;20436;-77
2022/08/07 07:23:46;;;;;;;6.97;3.92;;;;;;;;;;5002330;28;20090;-77
2022/08/07 07:26:34;;;;;;;6.45;3.95;;;;;;;;;;5007943;28;20054;-78
2022/08/07 07:29:08;;;;;;;8.13;3.92;;;;;;;;;;5007216;28;20857;-78
2022/08/07 07:31:56;;;;;;;6.00;3.83;;;;;;;;;;5007593;28;20097;-78
2022/08/07 07:34:27;;;;;;;8.75;4.15;;;;;;;;;;5008803;28;20062;-77
2022/08/07 07:36:57;;;;;;;;;;;;;;;;;;5010818;28;20143;-78
2022/08/07 07:39:41;;;;;;;5.75;3.35;;;;;;;;;;5007195;28;44870;-76
2022/08/07 07:42:22;;;;;;;7.68;3.58;;;;;;;;;;5007308;28;20050;-76
2022/08/07 07:45:03;;;;;;;4.35;2.70;;;;;;;;;;5009450;28;20054;-79
2022/08/07 07:47:31;;;;;;;5.75;2.70;;;;;;;;;;5007650;28;20050;-78
2022/08/07 07:50:23;;;;;;;5.20;2.40;;;;;;;;;;5008247;28;20061;-78
2022/08/07 07:53:06;;;;;;;8.00;2.17;;;;;;;;;;5006247;28;20496;-78
2022/08/07 07:55:51;;;;;;;4.60;1.73;;;;;;;;;;5006248;28;20055;-79
2022/08/07 07:58:29;;;;;;;3.40;1.98;;;;;;;;;;5008866;28;20050;-77
2022/08/07 08:01:07;;;;;;;2.97;2.13;;;;;;;;;;5006749;28;20047;-77
2022/08/07 08:03:57;;;;;;;3.63;2.35;;;;;;;;;;5011151;28;20071;-78
2022/08/07 08:06:38;;;;;;;3.72;2.10;;;;;;;;;;5011175;28;20050;-78
2022/08/07 08:09:06;;;;;;;5.32;2.53;;;;;;;;;;5006669;28;20098;-78
2022/08/07 08:11:36;;;;;;;4.15;2.28;;;;;;;;;;5011477;28;20564;-77
2022/08/07 08:14:23;;;;;;;4.22;2.17;;;;;;;;;;5007561;28;20046;-77
2022/08/07 08:16:53;;;;;;;9.55;2.30;;;;;;;;;;5008324;28;20055;-80
2022/08/07 08:19:25;;;;;;;3.30;2.17;;;;;;;;;;5008643;28;20133;-79
2022/08/07 08:28:20;;;;;;;3.83;2.03;;;;;;;;;;5011088;28;20054;-78
2022/08/07 08:31:02;;;;;;;4.57;2.37;;;;;;;;;;5009850;28;20054;-80
2022/08/07 08:33:33;;;;;;;4.35;2.30;;;;;;;;;;5009360;28;20057;-78
2022/08/07 08:36:25;;;;;;;6.43;2.47;;;;;;;;;;5009801;28;20054;-80
2022/08/07 08:38:56;;;;;;;;;;;;;;;;;;5011333;28;20851;-75
2022/08/07 08:41:29;;;;;;;6.80;2.50;;;;;;;;;;5008778;28;45135;-78
2022/08/07 08:44:25;;;;;;;4.35;2.70;;;;;;;;;;5003744;28;20105;-78
2022/08/07 08:47:00;;;;;;;3.75;2.28;;;;;;;;;;5010410;28;20141;-78
2022/08/07 08:49:30;;;;;;;4.40;2.50;;;;;;;;;;5011823;28;21167;-79
2022/08/07 08:52:05;;;;;;;5.32;2.50;;;;;;;;;;5011036;28;21024;-78
2022/08/07 08:54:47;;;;;;;3.70;2.25;;;;;;;;;;5008820;28;20078;-77
2022/08/07 08:57:23;;;;;;;5.43;2.28;;;;;;;;;;5009418;28;20054;-80
2022/08/07 08:59:53;;;;;;;4.57;2.60;;;;;;;;;;5011712;28;20061;-80
2022/08/07 09:02:38;;;;;;;5.05;2.45;;;;;;;;;;5010933;28;20113;-78
2022/08/07 09:05:26;;;;;;;3.20;2.13;;;;;;;;;;5005013;28;20062;-80
2022/08/07 09:08:06;;;;;;;4.18;2.28;;;;;;;;;;5004437;28;20101;-79
2022/08/07 09:10:46;;;;;;;4.38;2.20;;;;;;;;;;5012152;28;20042;-79
2022/08/07 09:13:22;;;;;;;3.72;1.88;;;;;;;;;;5006177;28;20145;-78
2022/08/07 09:16:27;;;;;;;2.97;1.70;;;;;;;;;;5008960;28;20181;-80
2022/08/07 09:18:59;;;;;;;3.33;1.93;;;;;;;;;;5002897;28;20967;-79
2022/08/07 09:21:38;;;;;;;2.67;1.80;;;;;;;;;;5011367;28;20993;-79
2022/08/07 09:24:41;;;;;;;5.43;1.80;;;;;;;;;;5009787;28;20580;-79
2022/08/07 09:27:40;;;;;;;7.97;1.80;;;;;;;;;;5011136;28;20065;-79
2022/08/07 09:30:51;;;;;;;6.00;2.10;;;;;;;;;;5005075;28;20051;-80
2022/08/07 09:33:39;;;;;;;4.60;2.05;;;;;;;;;;5007600;28;20042;-79
2022/08/07 09:36:38;;;;;;;3.88;1.90;;;;;;;;;;5006970;28;20081;-79
2022/08/07 09:39:15;;;;;;;9.80;1.88;;;;;;;;;;5010327;28;20054;-79
2022/08/07 09:42:30;;;;;;;3.38;1.90;;;;;;;;;;5007926;28;20133;-79
2022/08/07 09:45:10;;;;;;;4.25;2.08;;;;;;;;;;5008066;28;20042;-80
2022/08/07 09:48:18;;;;;;;2.70;1.65;;;;;;;;;;5008816;28;20535;-79
2022/08/07 09:51:04;;;;;;;3.78;1.95;;;;;;;;;;4996570;28;20051;-80
2022/08/07 09:53:57;;;;;;;3.28;1.80;;;;;;;;;;5008079;28;20137;-81
2022/08/07 09:56:41;;;;;;;2.78;1.90;;;;;;;;;;5008446;28;20053;-80
2022/08/07 09:59:11;;;;;;;2.95;1.70;;;;;;;;;;5007225;28;20070;-80
2022/08/07 10:01:40;;;;;;;5.03;2.00;;;;;;;;;;5007957;28;20154;-80
2022/08/07 10:04:38;;;;;;;4.43;1.80;;;;;;;;;;5008009;28;20552;-80
2022/08/07 10:07:31;;;;;;;5.18;2.17;;;;;;;;;;5009138;28;20046;-80
2022/08/07 10:10:28;;;;;;;2.13;1.60;;;;;;;;;;5009253;28;20051;-78
2022/08/07 10:13:08;;;;;;;2.88;1.77;;;;;;;;;;5008977;28;20101;-78
2022/08/07 10:16:02;;;;;;;4.38;2.05;;;;;;;;;;5010697;28;20054;-78
2022/08/07 10:18:46;;;;;;;3.13;1.90;;;;;;;;;;5007197;28;20054;-78
2022/08/07 10:21:36;;;;;;;7.13;1.77;;;;;;;;;;5009290;28;20055;-80
2022/08/07 10:24:44;;;;;;;2.40;1.83;;;;;;;;;;5004390;28;20807;-79
2022/08/07 10:27:31;;;;;;;2.55;1.52;;;;;;;;;;5007318;28;20050;-80
2022/08/07 10:30:18;;;;;;;3.53;1.83;;;;;;;;;;5009374;28;20054;-81
2022/08/07 10:32:55;;;;;;;2.17;1.80;;;;;;;;;;5007968;28;20054;-81
2022/08/07 10:35:26;;;;;;;2.83;1.83;;;;;;;;;;5008317;28;20061;-79
2022/08/07 10:38:25;;;;;;;3.22;1.67;;;;;;;;;;5005974;28;20145;-80
2022/08/07 10:41:21;;;;;;;5.70;1.55;;;;;;;;;;5007408;28;20057;-79
2022/08/07 10:44:20;;;;;;;2.67;1.50;;;;;;;;;;5004581;28;20058;-79
2022/08/07 10:47:11;;;;;;;2.00;1.33;;;;;;;;;;5005995;28;20141;-79
2022/08/07 10:49:46;;;;;;;3.20;1.60;;;;;;;;;;5005023;28;20089;-79
2022/08/07 10:52:40;;;;;;;1.88;1.30;;;;;;;;;;5023909;28;20186;-79
2022/08/07 10:55:19;;;;;;;5.38;1.60;;;;;;;;;;5002875;28;20935;-79
2022/08/07 10:58:20;;;;;;;2.33;1.65;;;;;;;;;;5006245;28;20059;-78
2022/08/07 11:01:05;;;;;;;5.65;1.80;;;;;;;;;;5022894;28;20058;-79
2022/08/07 11:03:41;;;;;;;5.15;1.70;;;;;;;;;;5025379;28;20050;-80
2022/08/07 11:06:44;;;;;;;2.70;1.50;;;;;;;;;;5005562;28;20136;-78
2022/08/07 11:09:21;;;;;;;2.45;1.63;;;;;;;;;;5009196;28;20061;-78
2022/08/07 11:12:17;;;;;;;1.98;1.40;;;;;;;;;;5007114;28;20051;-79
2022/08/07 11:15:00;;;;;;;4.03;1.50;;;;;;;;;;5008132;28;20883;-79
2022/08/07 11:17:32;;;;;;;2.20;1.40;;;;;;;;;;5007987;28;21454;-78
2022/08/07 11:20:20;;;;;;;2.58;1.70;;;;;;;;;;5019289;28;20043;-77
2022/08/07 11:23:01;;;;;;;2.25;1.52;;;;;;;;;;5007717;28;20061;-79
2022/08/07 11:25:36;;;;;;;3.15;1.50;;;;;;;;;;5002485;28;20053;-79
2022/08/07 11:28:19;;;;;;;3.10;1.38;;;;;;;;;;5008127;28;20084;-77
2022/08/07 11:30:51;;;;;;;3.17;1.50;;;;;;;;;;5009566;28;20082;-77
2022/08/07 11:33:23;;;;;;;2.95;1.23;;;;;;;;;;5003217;28;20121;-77
2022/08/07 11:36:29;;;;;;;2.45;1.27;;;;;;;;;;5005183;28;20050;-78
2022/08/07 11:39:18;;;;;;;3.10;1.42;;;;;;;;;;5004298;28;20035;-79
2022/08/07 11:42:06;;;;;;;3.13;1.35;;;;;;;;;;5003118;28;20133;-78
2022/08/07 11:44:56;;;;;;;1.88;1.17;;;;;;;;;;4979041;28;20832;-79
2022/08/07 11:47:47;;;;;;;4.80;1.17;;;;;;;;;;5010878;28;20081;-79
2022/08/07 11:50:44;;;;;;;4.03;1.40;;;;;;;;;;4998687;28;20050;-79
2022/08/07 11:53:27;;;;;;;2.47;1.50;;;;;;;;;;5006393;28;20042;-79
2022/08/07 11:56:10;;;;;;;2.10;1.50;;;;;;;;;;5002498;28;20523;-79
2022/08/07 11:58:56;;;;;;;5.00;1.48;;;;;;;;;;5007321;28;20060;-78
2022/08/07 12:01:43;;;;;;;3.40;1.60;;;;;;;;;;5006194;28;20061;-79
2022/08/07 12:04:33;;;;;;;3.55;1.45;;;;;;;;;;5011825;28;20050;-78
2022/08/07 12:07:05;;;;;;;2.08;1.38;;;;;;;;;;5010436;28;20054;-79
2022/08/07 12:10:09;;;;;;;2.13;1.40;;;;;;;;;;5008072;28;20054;-79
2022/08/07 12:12:44;;;;;;;1.73;1.23;;;;;;;;;;4965709;28;20043;-77
2022/08/07 12:15:15;;;;;;;2.72;1.50;;;;;;;;;;4961730;28;20227;-78
2022/08/07 12:18:06;;;;;;;2.00;1.27;;;;;;;;;;4968173;28;20075;-79
2022/08/07 12:20:46;;;;;;;1.83;1.40;;;;;;;;;;4969952;28;20066;-79
2022/08/07 12:23:34;;;;;;;3.42;1.48;;;;;;;;;;4970063;28;20051;-79
2022/08/07 12:26:28;;;;;;;2.13;1.20;;;;;;;;;;4965960;28;20048;-79
2022/08/07 12:29:18;;;;;;;2.20;1.33;;;;;;;;;;4968680;28;20058;-79
2022/08/07 12:32:15;;;;;;;3.80;1.45;;;;;;;;;;4963461;28;20055;-79
2022/08/07 12:34:45;;;;;;;2.15;1.38;;;;;;;;;;4960589;28;20839;-79
2022/08/07 12:37:20;;;;;;;2.75;1.60;;;;;;;;;;4967542;28;20155;-78
2022/08/07 12:39:55;;;;;;;1.88;1.50;;;;;;;;;;4970516;28;20066;-78
2022/08/07 12:42:27;;;;;;;1.67;1.40;;;;;;;;;;4969614;28;20969;-78
2022/08/07 12:45:00;;;;;;;2.05;1.50;;;;;;;;;;4968356;28;20429;-79
2022/08/07 12:47:41;;;;;;;3.00;1.20;;;;;;;;;;4966602;28;20080;-79
2022/08/07 12:50:18;;;;;;;2.28;1.30;;;;;;;;;;4998083;28;20101;-80
2022/08/07 12:53:14;;;;;;;1.92;1.50;;;;;;;;;;5009033;28;20058;-80
2022/08/07 12:56:03;;;;;;;3.75;1.40;;;;;;;;;;5013228;28;20055;-79
2022/08/07 12:58:38;;;;;;;2.38;1.40;;;;;;;;;;5012477;28;20098;-80
2022/08/07 13:01:31;;;;;;;4.35;1.40;;;;;;;;;;5009286;28;20050;-79
2022/08/07 13:04:05;;;;;;;2.92;1.42;;;;;;;;;;5010310;28;20056;-80
2022/08/07 13:06:45;;;;;;;2.65;1.42;;;;;;;;;;5009741;28;20046;-79
2022/08/07 13:09:35;;;;;;;3.78;1.67;;;;;;;;;;5010053;28;20054;-79
2022/08/07 13:12:28;;;;;;;2.28;1.50;;;;;;;;;;5014094;28;20069;-78
2022/08/07 13:15:05;;;;;;;3.47;1.70;;;;;;;;;;5009816;28;20061;-81
2022/08/07 13:17:45;;;;;;;2.08;1.50;;;;;;;;;;5011443;28;20883;-78
2022/08/07 13:20:23;;;;;;;2.63;1.80;;;;;;;;;;5010364;28;20054;-78
2022/08/07 13:23:08;;;;;;;5.20;1.85;;;;;;;;;;5011912;28;20050;-78
2022/08/07 13:26:05;;;;;;;3.53;1.65;;;;;;;;;;5008990;28;20050;-78
2022/08/07 13:28:52;;;;;;;3.40;1.75;;;;;;;;;;5010000;28;20129;-79
2022/08/07 13:31:35;;;;;;;4.13;1.80;;;;;;;;;;5005243;28;20061;-79
2022/08/07 13:34:31;;;;;;;4.05;1.73;;;;;;;;;;5008452;28;20063;-78
2022/08/07 13:37:09;;;;;;;4.32;1.80;;;;;;;;;;5012719;28;20050;-79
2022/08/07 13:39:56;;;;;;;4.40;2.10;;;;;;;;;;5010339;28;20078;-79
2022/08/07 13:42:43;;;;;;;5.95;1.50;;;;;;;;;;5005226;28;20060;-78
2022/08/07 13:45:14;;;;;;;4.00;1.90;;;;;;;;;;5010597;28;20576;-78
2022/08/07 13:48:03;;;;;;;2.80;1.60;;;;;;;;;;5010327;28;20436;-80
2022/08/07 13:50:37;;;;;;;3.90;1.88;;;;;;;;;;5010460;28;20047;-79
2022/08/07 13:53:35;;;;;;;4.18;1.60;;;;;;;;;;5012091;28;20072;-79
2022/08/07 13:56:24;;;;;;;4.53;2.03;;;;;;;;;;5011292;28;20050;-79
2022/08/07 13:59:21;;;;;;;3.60;1.88;;;;;;;;;;5008001;28;20050;-79
2022/08/07 14:01:51;;;;;;;2.72;1.80;;;;;;;;;;5008563;28;20058;-78
2022/08/07 14:04:32;;;;;;;4.65;1.83;;;;;;;;;;5009010;28;20055;-78
2022/08/07 14:07:08;;;;;;;4.05;1.95;;;;;;;;;;5012248;28;20058;-79
2022/08/07 14:09:39;;;;;;;2.58;1.52;;;;;;;;;;5008347;28;20141;-80
2022/08/07 14:12:33;;;;;;;4.18;2.00;;;;;;;;;;5010304;28;20058;-79
2022/08/07 14:15:09;;;;;;;3.35;1.60;;;;;;;;;;5008181;28;20058;-79
2022/08/07 14:17:39;;;;;;;3.25;1.65;;;;;;;;;;5007417;28;20174;-77
2022/08/07 14:20:27;;;;;;;2.85;1.63;;;;;;;;;;5001343;28;20050;-80
2022/08/07 14:23:17;;;;;;;4.45;1.70;;;;;;;;;;5010352;28;20445;-80
2022/08/07 14:26:07;;;;;;;4.30;2.10;;;;;;;;;;5009050;28;20050;-80
2022/08/07 14:28:36;;;;;;;3.15;1.63;;;;;;;;;;5006034;28;20109;-80
2022/08/07 14:31:25;;;;;;;3.28;1.80;;;;;;;;;;5008511;28;20109;-80
2022/08/07 14:34:19;;;;;;;3.38;1.90;;;;;;;;;;5008805;28;20097;-80
2022/08/07 14:36:55;;;;;;;2.78;1.75;;;;;;;;;;5005312;28;20161;-79
2022/08/07 14:39:23;;;;;;;2.47;1.73;;;;;;;;;;5012591;28;20046;-79
2022/08/07 14:42:14;;;;;;;2.25;1.58;;;;;;;;;;5006837;28;20054;-79
2022/08/07 14:44:52;;;;;;;2.72;1.70;;;;;;;;;;5009293;28;20054;-79
2022/08/07 14:47:22;;;;;;;2.90;1.50;;;;;;;;;;5009315;28;20137;-80
2022/08/07 14:49:53;;;;;;;2.72;1.60;;;;;;;;;;5006049;28;20754;-79
2022/08/07 14:52:25;;;;;;;2.25;1.42;;;;;;;;;;5006802;28;20054;-80
2022/08/07 14:54:57;;;;;;;2.97;1.55;;;;;;;;;;5008281;28;20078;-80
2022/08/07 14:57:25;;;;;;;2.30;1.40;;;;;;;;;;5007703;28;20077;-80
2022/08/07 15:00:12;;;;;;;2.30;1.48;;;;;;;;;;5015030;28;20049;-79
2022/08/07 15:03:02;;;;;;;2.17;1.40;;;;;;;;;;5009688;28;20430;-79
2022/08/07 15:05:47;;;;;;;2.33;1.50;;;;;;;;;;5011446;28;20086;-78
2022/08/07 15:08:32;;;;;;;3.75;1.75;;;;;;;;;;5011984;28;20157;-77
2022/08/07 15:11:04;;;;;;;2.50;1.50;;;;;;;;;;5005760;28;20050;-81
2022/08/07 15:13:37;;;;;;;3.47;1.35;;;;;;;;;;5010065;28;20058;-81
2022/08/07 15:16:10;;;;;;;2.65;1.52;;;;;;;;;;5007780;28;20053;-80
2022/08/07 15:18:46;;;;;;;2.03;1.20;;;;;;;;;;5007260;28;20042;-80
2022/08/07 15:21:16;;;;;;;2.22;1.20;;;;;;;;;;5009065;28;21230;-79
2022/08/07 15:24:10;;;;;;;2.20;1.50;;;;;;;;;;5009581;28;20043;-80
2022/08/07 15:27:14;;;;;;;2.50;1.30;;;;;;;;;;5020655;28;20504;-80
2022/08/07 15:29:42;;;;;;;4.63;1.40;;;;;;;;;;5005656;28;20144;-80
2022/08/07 15:32:30;;;;;;;2.22;1.30;;;;;;;;;;5005794;28;20551;-82
2022/08/07 15:35:22;;;;;;;2.45;1.30;;;;;;;;;;5004368;28;20054;-82
2022/08/07 15:38:10;;;;;;;4.50;1.60;;;;;;;;;;5010303;28;20093;-80
2022/08/07 15:41:00;;;;;;;2.30;1.33;;;;;;;;;;5011610;28;20058;-82
2022/08/07 15:43:57;;;;;;;5.35;1.60;;;;;;;;;;5018444;28;20508;-81
2022/08/07 15:46:29;;;;;;;1.75;1.40;;;;;;;;;;5010888;28;20050;-81
2022/08/07 15:49:17;;;;;;;2.15;1.60;;;;;;;;;;5007004;28;20855;-80
2022/08/07 15:51:53;;;;;;;2.67;1.60;;;;;;;;;;5007165;28;20125;-79
2022/08/07 15:54:26;;;;;;;4.18;1.40;;;;;;;;;;5006522;28;20125;-80
2022/08/07 15:56:56;;;;;;;5.43;1.88;;;;;;;;;;5013331;28;20054;-79
2022/08/07 15:59:25;;;;;;;3.03;1.60;;;;;;;;;;5012972;28;20125;-79
2022/08/07 16:02:14;;;;;;;4.28;1.45;;;;;;;;;;5017338;28;20133;-79
2022/08/07 16:04:42;;;;;;;3.17;1.52;;;;;;;;;;5007484;28;20055;-81